Brunswick Golden Isles Airport
KBQK : now visible

Airfield :











YOU CAN JOIN US ON...

 
LOGIN :

Register | Disclaimer

   EN    FR    IT 

 









Legend :    VFR   Marginal VFR   IFR   Intensive IFR   Very Intensive IFR
Visi :
Ceiling :
>= 8 km
>= 3000ft
5 to 8 km
1000 to 3000 ft
1500m to 5 km
500 to 1000 ft
800 to 1500m
200 to 500 ft
< 800m
< 200 ft
Symbols :   Thunderstorms  Fog  Heavy snow  Heavy precipitations  Wind > 20 kt







- Airport Elevation : 26 ft
- IATA code : BQK


KBQK - Brunswick Golden Isles

CURRENT METAR :
  • 210435Z AUTO 04004KT 10SM SCT050 SCT055 20/20 A3022 RMK AO2 T02050195

EXPIRED METARs :
  • 210415Z AUTO 00000KT 10SM -RA SCT040 SCT048 OVC055 22/20 A3022 RMK AO2 T02160202
  • 210355Z AUTO 00000KT 10SM SCT038 SCT046 BKN070 20/20 A3022 RMK AO2 T01990196
  • 210335Z AUTO 00000KT 10SM SCT038 SCT043 21/20 A3022 RMK AO2 T02060202
  • 210315Z AUTO 00000KT 10SM SCT039 SCT045 SCT070 21/20 A3023 RMK AO2 T02090203
  • 210255Z AUTO 00000KT 10SM SCT039 BKN055 BKN070 21/20 A3023 RMK AO2 T02140204
  • 210235Z AUTO 01004KT 10SM SCT041 BKN065 22/20 A3023 RMK AO2 T02150205
  • 210215Z AUTO 36005KT 10SM SCT039 SCT048 SCT065 22/21 A3022 RMK AO2 T02180206

TAF N/A
No reported NOTAMs for that airfield.



MET'MAP, your aeronautical weather chart ! - Copyright ORBIFLY December 2007 - Disclaimer

ORBIFLY MET'MAP TEAM :

Programming & Development : Alexandra Zaïnal
Concept & Development : Baudouin d'Aumeries
Co-Development & Prog : Marc-Olivier Méhu
Technical & hardware support : Manuel Goepfert

Contact : metmap@orbifly.com




SOURCES & CREDITS :

   NOAA       Earth
Advisory